Time;durP1;ratioP1;P1;durP2;ratioP2;P2;SDS_P1;SDS_P2;PMS_P1;PMS_P2;Temp;Humidity;BMP_temperature;BMP_pressure;BME280_temperature;BME280_humidity;BME280_pressure;Samples;Min_cycle;Max_cycle;Signal;HPM_P1;HPM_P2
2023/10/13 07:23:45;;;;;;;10.05;7.93;;;;;;;-145.79;100.00;76457.47;5269557;27;1898818;-71
2023/10/13 07:26:17;;;;;;;9.48;7.53;;;;;;;-145.79;100.00;76457.47;5307252;28;20402;-71
2023/10/13 07:28:51;;;;;;;12.00;7.75;;;;;;;-145.79;100.00;76451.09;5312646;28;20028;-70
2023/10/13 07:31:26;;;;;;;12.90;8.25;;;;;;;-145.79;100.00;76440.50;5308560;28;20378;-68
2023/10/13 07:34:12;;;;;;;11.25;8.95;;;;;;;-145.79;100.00;76440.50;5303907;28;20032;-70
2023/10/13 07:36:43;;;;;;;12.30;8.02;;;;;;;-145.79;100.00;76432.03;5313693;28;20039;-70
2023/10/13 07:39:21;;;;;;;8.48;6.82;;;;;;;-145.79;100.00;76436.28;5310037;28;20029;-69
2023/10/13 07:41:54;;;;;;;10.38;8.07;;;;;;;-145.79;100.00;76421.44;5315864;28;20032;-69
2023/10/13 07:44:28;;;;;;;9.02;7.28;;;;;;;-145.79;100.00;76406.59;5311043;28;20446;-69
2023/10/13 07:47:04;;;;;;;33.63;28.20;;;;;;;-145.79;100.00;76404.47;5307676;28;20034;-71
2023/10/13 07:49:37;;;;;;;19.15;14.48;;;;;;;-145.79;100.00;76398.13;5308390;28;20278;-70
2023/10/13 07:57:56;;;;;;;11.10;6.97;;;;;;;-145.79;100.00;76379.06;5296943;28;20036;-71
2023/10/13 08:08:46;;;;;;;11.25;6.07;;;;;;;-145.79;100.00;76359.97;5310878;28;20089;-71
2023/10/13 08:13:59;;;;;;;14.27;6.70;;;;;;;-145.79;100.00;76351.50;5304578;28;20035;-70
2023/10/13 08:19:27;;;;;;;11.32;6.13;;;;;;;-145.79;100.00;76328.19;5313852;28;20031;-70
2023/10/13 08:21:59;;;;;;;11.90;6.03;;;;;;;-145.79;100.00;76330.31;5312769;28;20075;-72
2023/10/13 08:33:04;;;;;;;8.30;5.82;;;;;;;-145.79;100.00;76298.53;5310218;28;20448;-71
2023/10/13 08:35:35;;;;;;;10.32;6.63;;;;;;;-145.79;100.00;76287.94;5296333;28;20032;-71
2023/10/13 08:38:17;;;;;;;11.48;5.63;;;;;;;-145.79;100.00;76279.47;5300329;28;20528;-71
2023/10/13 08:43:44;;;;;;;14.60;6.80;;;;;;;-145.79;100.00;76270.97;5289052;28;20036;-71
2023/10/13 08:46:30;;;;;;;11.95;5.97;;;;;;;-145.79;100.00;76283.69;5302367;28;20074;-69
2023/10/13 08:49:39;;;;;;;11.43;6.65;;;;;;;-145.79;100.00;76275.22;5293362;28;20059;-70
2023/10/13 08:52:42;;;;;;;10.93;6.50;;;;;;;-145.79;100.00;76264.63;5289032;28;20037;-70
2023/10/13 08:57:53;;;;;;;11.23;6.43;;;;;;;-145.79;100.00;76256.16;5294079;28;20449;-71
2023/10/13 09:00:28;;;;;;;10.23;6.28;;;;;;;-145.79;100.00;76241.31;5291924;28;20060;-70
2023/10/13 09:06:19;;;;;;;10.77;6.05;;;;;;;-145.79;100.00;76224.38;5244236;28;20029;-69
2023/10/13 09:09:07;;;;;;;13.90;6.63;;;;;;;-145.79;100.00;76220.13;5287912;28;20060;-70
2023/10/13 09:11:53;;;;;;;9.52;6.13;;;;;;;-145.79;100.00;76220.13;5303651;28;20115;-70
2023/10/13 09:14:35;;;;;;;11.98;6.30;;;;;;;-145.79;100.00;76213.75;5294317;28;20431;-70
2023/10/13 09:17:11;;;;;;;12.98;7.15;;;;;;;-145.79;100.00;76211.66;5297441;28;20463;-69
2023/10/13 09:19:47;;;;;;;11.60;6.28;;;;;;;-145.79;100.00;76215.88;5287497;28;20521;-69
2023/10/13 09:22:28;;;;;;;11.38;6.13;;;;;;;-145.79;100.00;76211.66;5298049;28;20048;-70
2023/10/13 09:25:00;;;;;;;12.98;6.47;;;;;;;-145.79;100.00;76215.88;5286938;28;20119;-70
2023/10/13 09:27:33;;;;;;;9.60;6.00;;;;;;;-145.79;100.00;76215.88;5301868;28;20027;-71
2023/10/13 09:30:21;;;;;;;9.40;5.75;;;;;;;-145.79;100.00;76207.41;5297545;28;20463;-70
2023/10/13 09:33:04;;;;;;;10.98;5.57;;;;;;;-145.79;100.00;76198.94;5290011;28;20028;-70
2023/10/13 09:35:37;;;;;;;9.68;6.28;;;;;;;-145.79;100.00;76198.94;5294677;28;20024;-69
2023/10/13 09:38:11;;;;;;;10.52;6.15;;;;;;;-145.79;100.00;76188.34;5287949;28;20052;-70
2023/10/13 09:40:49;;;;;;;9.27;5.93;;;;;;;-145.79;100.00;76177.75;5291814;28;20028;-70
2023/10/13 09:43:21;;;;;;;13.18;6.43;;;;;;;-145.79;99.94;76165.03;5294932;28;20038;-70
2023/10/13 09:46:07;;;;;;;12.68;5.95;;;;;;;-145.79;98.78;76167.16;5292248;28;20040;-70
2023/10/13 09:48:45;;;;;;;;;;;;;;;-145.79;99.42;76156.56;5298192;28;20544;-69
2023/10/13 09:51:22;;;;;;;;;;;;;;;-145.79;99.26;76160.78;5292950;28;20368;-69
2023/10/13 09:54:00;;;;;;;;;;;;;;;-145.79;98.32;76148.06;5292401;28;19916;-70
2023/10/13 09:56:51;;;;;;;;;;;;;;;-145.79;98.87;76148.06;5295198;28;19919;-69
2023/10/13 09:59:34;;;;;;;;;;;;;;;-145.79;97.52;76139.59;5295652;28;20391;-69
2023/10/13 10:02:18;;;;;;;;;;;;;;;-145.79;97.88;76122.66;5291140;28;19971;-70
2023/10/13 10:04:53;;;;;;;;;;;;;;;-145.79;96.44;76116.28;5295761;28;19917;-71
2023/10/13 10:07:28;;;;;;;;;;;;;;;-145.79;96.69;76107.81;5292196;28;19942;-72
2023/10/13 10:10:00;;;;;;;;;;;;;;;-145.79;96.02;76099.34;5283677;28;19916;-71
2023/10/13 10:12:38;;;;;;;;;;;;;;;-145.79;96.16;76088.75;5292370;28;20019;-72
2023/10/13 10:15:46;;;;;;;;;;;;;;;-145.79;94.65;76084.50;5295336;28;20069;-73
2023/10/13 10:18:27;;;;;;;;;;;;;;;-145.79;95.14;76073.91;5259961;28;19915;-75
2023/10/13 10:21:07;;;;;;;;;;;;;;;-145.79;94.62;76080.28;5292400;28;19962;-75
2023/10/13 10:23:44;;;;;;;;;;;;;;;-145.79;94.39;76076.03;5294896;28;20011;-77
2023/10/13 10:26:20;;;;;;;;;;;;;;;-145.79;94.71;76076.03;5273788;28;19916;-76
2023/10/13 10:28:54;;;;;;;;;;;;;;;-145.79;94.38;76065.44;5295913;28;19916;-75
2023/10/13 10:31:34;;;;;;;;;;;;;;;-145.79;94.00;76059.09;5295407;28;19920;-75
2023/10/13 10:34:18;;;;;;;;;;;;;;;-145.79;92.93;76054.84;5293553;28;19916;-75
2023/10/13 10:36:53;;;;;;;;;;;;;;;-145.79;93.27;76054.84;5293417;28;19965;-72
2023/10/13 10:39:44;;;;;;;;;;;;;;;-145.79;92.57;76046.38;5288160;28;19920;-72
2023/10/13 10:42:18;;;;;;;;;;;;;;;-145.79;93.71;76042.13;5294134;28;19926;-71
2023/10/13 10:44:55;;;;;;;;;;;;;;;-145.79;92.58;76046.38;5294329;28;20340;-70
2023/10/13 10:47:36;;;;;;;;;;;;;;;-145.79;90.90;76044.25;5294173;28;19962;-69
2023/10/13 10:50:18;;;;;;;;;;;;;;;-145.79;90.62;76033.66;5302792;28;19928;-71
2023/10/13 10:52:50;;;;;;;;;;;;;;;-145.79;89.68;76031.53;5295609;28;19973;-73
2023/10/13 10:55:27;;;;;;;;;;;;;;;-145.79;90.67;76037.88;5294112;28;19920;-73
2023/10/13 10:58:01;;;;;;;;;;;;;;;-145.79;91.11;76029.41;5290653;28;19958;-70
2023/10/13 11:00:45;;;;;;;;;;;;;;;-145.79;90.92;76031.53;5297519;28;19943;-72
2023/10/13 11:03:17;;;;;;;;;;;;;;;-145.79;89.59;76025.19;5287697;28;19923;-71
2023/10/13 11:05:50;;;;;;;;;;;;;;;-145.79;89.45;76018.81;5298206;28;20335;-71
2023/10/13 11:08:33;;;;;;;;;;;;;;;-145.79;88.85;76012.47;5294531;28;19917;-71
2023/10/13 11:11:05;;;;;;;;;;;;;;;-145.79;88.78;75999.75;5296287;28;20376;-70
2023/10/13 11:13:50;;;;;;;;;;;;;;;-145.79;87.98;75989.16;5284151;28;19923;-71
2023/10/13 11:16:24;;;;;;;;;;;;;;;-145.79;87.50;75982.81;5291322;28;20037;-70
2023/10/13 11:19:02;;;;;;;;;;;;;;;-145.79;87.89;75970.09;5293495;28;19946;-70
2023/10/13 11:21:37;;;;;;;;;;;;;;;-145.79;86.09;75976.44;5295087;28;19960;-69
2023/10/13 11:24:11;;;;;;;;;;;;;;;-145.79;86.12;75957.38;5291877;28;19926;-71
2023/10/13 11:26:49;;;;;;;;;;;;;;;-145.79;85.19;75944.66;5289633;28;19962;-70
2023/10/13 11:29:30;;;;;;;;;;;;;;;-145.79;85.33;75936.19;5296018;28;20383;-70
2023/10/13 11:32:02;;;;;;;;;;;;;;;-145.79;85.28;75929.81;5292940;28;19916;-70
2023/10/13 11:34:39;;;;;;;;;;;;;;;-145.79;85.80;75919.22;5289859;28;19921;-71
2023/10/13 11:37:37;;;;;;;;;;;;;;;-145.79;85.43;75915.00;5299556;28;20299;-71
2023/10/13 11:40:12;;;;;;;;;;;;;;;-145.79;85.28;75904.41;5296902;28;20414;-71
2023/10/13 11:42:47;;;;;;;;;;;;;;;-145.79;84.80;75891.69;5292434;28;19920;-71
2023/10/13 11:45:35;;;;;;;;;;;;;;;-145.79;83.93;75887.44;5297759;28;20963;-73
2023/10/13 11:48:13;;;;;;;;;;;;;;;-145.79;83.62;75878.97;5291517;28;19920;-72
2023/10/13 11:50:46;;;;;;;;;;;;;;;-145.79;82.42;75864.16;5290390;28;19916;-72
2023/10/13 11:53:17;;;;;;;;;;;;;;;-145.79;82.69;75862.03;5290884;28;19916;-72
2023/10/13 11:55:49;;;;;;;;;;;;;;;-145.79;82.33;75864.16;5290643;28;20011;-72
2023/10/13 11:58:21;;;;;;;;;;;;;;;-145.79;81.86;75855.66;5292258;28;19916;-72
2023/10/13 12:01:19;;;;;;;;;;;;;;;-145.79;81.05;75851.44;5297329;28;20367;-72
2023/10/13 12:11:50;;;;;;;;;;;;;;;-145.79;79.72;75806.94;5289630;28;20358;-72
2023/10/13 12:14:21;;;;;;;;;;;;;;;-145.79;79.68;75794.22;5295510;28;19923;-71
2023/10/13 12:16:53;;;;;;;;;;;;;;;-145.79;79.37;75783.63;5290541;28;20378;-71
2023/10/13 12:19:24;;;;;;;;;;;;;;;-145.79;78.39;75781.50;5300640;28;19921;-70
2023/10/13 12:21:57;;;;;;;;;;;;;;;-145.79;77.56;75777.28;5296872;28;19920;-71
2023/10/13 12:30:14;;;;;;;;;;;;;;;-145.79;76.83;75753.97;5191642;28;19980;-72
2023/10/13 12:32:53;;;;;;;;;;;;;;;-145.79;76.85;75753.97;5283262;28;20363;-71
2023/10/13 12:35:34;;;;;;;;;;;;;;;-145.79;77.21;75741.25;5296260;28;19920;-72
2023/10/13 12:38:08;;;;;;;;;;;;;;;-145.79;76.86;75737.00;5299350;28;20416;-72
2023/10/13 12:49:38;;;;;;;;;;;;;;;-145.79;75.09;75728.53;5303620;28;19924;-71
2023/10/13 12:52:15;;;;;;;;;;;;;;;-145.79;74.54;75722.19;5297156;28;19960;-71
2023/10/13 12:55:05;;;;;;;;;;;;;;;-145.79;74.44;75720.06;5293043;28;20283;-71
2023/10/13 12:57:42;;;;;;;;;;;;;;;-145.79;74.18;75724.31;5292830;28;19977;-71
2023/10/13 13:00:21;;;;;;;;;;;;;;;-145.79;72.79;75720.06;5287648;28;19924;-72
2023/10/13 13:02:55;;;;;;;;;;;;;;;-145.79;72.49;75720.06;5300044;28;20341;-71
2023/10/13 13:05:31;;;;;;;;;;;;;;;-145.79;72.13;75709.47;5303163;28;19971;-71
2023/10/13 13:08:02;;;;;;;;;;;;;;;-145.79;70.75;75705.22;5298996;28;19916;-73
2023/10/13 13:10:36;;;;;;;;;;;;;;;-145.79;70.70;75705.22;5289468;28;20347;-73
2023/10/13 13:13:09;;;;;;;;;;;;;;;-145.79;70.20;75692.53;5296156;28;19922;-73
2023/10/13 13:15:40;;;;;;;;;;;;;;;-145.79;69.28;75696.75;5297596;28;19916;-73
2023/10/13 13:18:11;;;;;;;;;;;;;;;-145.79;70.28;75696.75;5293769;28;19921;-70
2023/10/13 13:20:55;;;;;;;;;;;;;;;-145.79;69.09;75701.00;5304725;28;19918;-71
2023/10/13 13:23:26;;;;;;;;;;;;;;;-145.79;68.74;75688.28;5293996;28;20011;-70
2023/10/13 13:25:57;;;;;;;;;;;;;;;-145.79;69.06;75692.53;5301773;28;20027;-70
2023/10/13 13:28:29;;;;;;;;;;;;;;;-145.79;69.60;75688.28;5295805;28;19949;-68
2023/10/13 13:31:00;;;;;;;;;;;;;;;-145.79;68.58;75681.94;5293892;28;20015;-68
2023/10/13 13:33:33;;;;;;;;;;;;;;;-145.79;68.76;75690.41;5292153;28;19923;-69
2023/10/13 13:36:07;;;;;;;;;;;;;;;-145.79;68.91;75690.41;5294637;28;19969;-68
2023/10/13 13:38:40;;;;;;;;;;;;;;;-145.79;69.13;75686.16;5294176;28;20357;-68
2023/10/13 13:41:17;;;;;;;;;;;;;;;-145.79;69.51;75698.88;5300302;28;19961;-71
2023/10/13 13:46:29;;;;;;;;;;;;;;;-145.79;69.52;75701.00;5292783;28;19920;-68
2023/10/13 13:49:01;;;;;;;;;;;;;;;-145.79;69.29;75703.13;5291604;28;19927;-70
2023/10/13 13:51:33;;;;;;;;;;;;;;;-145.79;69.28;75696.75;5294139;28;19916;-69
2023/10/13 13:54:06;;;;;;;;;;;;;;;-145.79;68.91;75701.00;5299707;28;20298;-69
2023/10/13 13:56:41;;;;;;;;;;;;;;;-145.79;69.29;75698.88;5292738;28;20190;-69
2023/10/13 13:59:15;;;;;;;;;;;;;;;-145.79;68.80;75698.88;5301409;28;20287;-69
2023/10/13 14:01:47;;;;;;;;;;;;;;;-145.79;69.09;75694.63;5292736;28;20043;-68
2023/10/13 14:04:18;;;;;;;;;;;;;;;-145.79;69.15;75690.41;5287348;28;20011;-70
2023/10/13 14:06:50;;;;;;;;;;;;;;;-145.79;69.73;75701.00;5296304;28;19951;-68
2023/10/13 14:09:36;;;;;;;;;;;;;;;-145.79;70.19;75694.63;5287477;28;20283;-69
2023/10/13 14:14:57;;;;;;;;;;;;;;;-145.79;70.02;75707.34;5298047;28;20355;-69
2023/10/13 14:17:35;;;;;;;;;;;;;;;-145.79;69.64;75709.47;5295808;28;19920;-69
2023/10/13 14:20:15;;;;;;;;;;;;;;;-145.79;70.04;75711.59;5297598;28;19986;-69
2023/10/13 14:22:49;;;;;;;;;;;;;;;-145.79;69.65;75703.13;5295952;28;19999;-69
2023/10/13 14:25:24;;;;;;;;;;;;;;;-145.79;68.75;75690.41;5289309;28;19951;-69
2023/10/13 14:27:58;;;;;;;;;;;;;;;-145.79;68.35;75696.75;5289639;28;20316;-70
2023/10/13 14:30:31;;;;;;;;;;;;;;;-145.79;68.15;75690.41;5291273;28;19970;-71
2023/10/13 14:33:02;;;;;;;;;;;;;;;-145.79;68.47;75681.94;5296888;28;19927;-70
2023/10/13 14:35:35;;;;;;;;;;;;;;;-145.79;68.32;75690.41;5290642;28;20646;-70
2023/10/13 14:38:07;;;;;;;;;;;;;;;-145.79;69.28;75696.75;5294266;28;19920;-71
2023/10/13 14:40:38;;;;;;;;;;;;;;;-145.79;69.33;75694.63;5298329;28;19927;-71
2023/10/13 14:43:09;;;;;;;;;;;;;;;-145.79;70.02;75703.13;5294351;28;19916;-70
2023/10/13 14:45:40;;;;;;;;;;;;;;;-145.79;70.38;75703.13;5297591;28;19916;-71
2023/10/13 14:48:12;;;;;;;;;;;;;;;-145.79;69.51;75703.13;5296748;28;19912;-70
2023/10/13 14:50:45;;;;;;;;;;;;;;;-145.79;70.17;75711.59;5297763;28;19916;-69
2023/10/13 14:53:19;;;;;;;;;;;;;;;-145.79;70.85;75720.06;5290027;28;19957;-70
2023/10/13 14:55:51;;;;;;;;;;;;;;;-145.79;70.66;75720.06;5295192;28;19959;-70
2023/10/13 14:58:26;;;;;;;;;;;;;;;-145.79;70.63;75715.81;5293688;28;19955;-71
2023/10/13 15:01:00;;;;;;;;;;;;;;;-145.79;71.05;75711.59;5295502;28;20020;-70
2023/10/13 15:03:37;;;;;;;;;;;;;;;-145.79;71.34;75715.81;5292892;28;19916;-70
2023/10/13 15:06:17;;;;;;;;;;;;;;;-145.79;71.41;75715.81;5288737;28;20639;-70
2023/10/13 15:08:48;;;;;;;;;;;;;;;-145.79;71.63;75720.06;5293248;28;19920;-70
2023/10/13 15:11:20;;;;;;;;;;;;;;;-145.79;72.00;75730.66;5288687;28;20046;-71
2023/10/13 15:13:52;;;;;;;;;;;;;;;-145.79;72.25;75734.91;5292478;28;19924;-70
2023/10/13 15:16:24;;;;;;;;;;;;;;;-145.79;72.16;75734.91;5293808;28;19916;-70
2023/10/13 15:18:56;;;;;;;;;;;;;;;-145.79;72.48;75739.13;5291551;28;19916;-70
2023/10/13 15:21:34;;;;;;;;;;;;;;;-145.79;73.64;75741.25;5290617;28;19938;-70
2023/10/13 15:24:16;;;;;;;;;;;;;;;-145.79;75.03;75734.91;5288597;28;20097;-70
2023/10/13 15:26:48;;;;;;;;;;;;;;;-145.79;75.53;75737.00;5286685;28;20027;-70
2023/10/13 15:29:25;;;;;;;;;;;;;;;-145.79;76.85;75739.13;5282711;28;20035;-70
2023/10/13 15:34:30;;;;;;;;;;;;;;;-145.79;76.77;75749.72;5297282;28;19931;-70
2023/10/13 15:37:04;;;;;;;;;;;;;;;-145.79;77.09;75758.19;5294388;28;20278;-69
2023/10/13 15:39:36;;;;;;;;;;;;;;;-145.79;77.58;75758.19;5297326;28;19916;-69
2023/10/13 15:42:09;;;;;;;;;;;;;;;-145.79;77.69;75766.69;5297575;28;20377;-69
2023/10/13 15:44:43;;;;;;;;;;;;;;;-145.79;78.12;75764.56;5295192;28;19955;-69
2023/10/13 15:47:14;;;;;;;;;;;;;;;-145.79;79.07;75766.69;5290647;28;20421;-68
2023/10/13 15:49:45;;;;;;;;;;;;;;;-145.79;79.11;75762.44;5292283;28;19920;-68
2023/10/13 15:52:16;;;;;;;;;;;;;;;-145.79;79.90;75758.19;5292670;28;19920;-68
2023/10/13 15:54:47;;;;;;;;;;;;;;;-145.79;79.11;75760.31;5295041;28;20415;-69
2023/10/13 15:57:19;;;;;;;;;;;;;;;-145.79;79.69;75756.09;5296966;28;19916;-67
2023/10/13 15:59:50;;;;;;;;;;;;;;;-145.79;80.27;75756.09;5293110;28;20386;-67
2023/10/13 16:02:23;;;;;;;;;;;;;;;-145.79;80.80;75745.50;5292941;28;19959;-68
2023/10/13 16:04:59;;;;;;;;;;;;;;;-145.79;80.66;75758.19;5290729;28;19916;-68
2023/10/13 16:07:30;;;;;;;;;;;;;;;-145.79;81.02;75760.31;5296426;28;19923;-69
2023/10/13 16:10:01;;;;;;;;;;;;;;;-145.79;81.50;75768.78;5300890;28;19915;-68
2023/10/13 16:12:44;;;;;;;;;;;;;;;-145.79;81.18;75766.69;5301142;28;19958;-68
2023/10/13 16:15:16;;;;;;;;;;;;;;;-145.79;81.30;75768.78;5304394;28;19951;-68
2023/10/13 16:17:47;;;;;;;;;;;;;;;-145.79;81.42;75762.44;5294883;28;19959;-69
2023/10/13 16:20:20;;;;;;;;;;;;;;;-145.79;80.81;75753.97;5297002;28;19924;-68
2023/10/13 16:22:51;;;;;;;;;;;;;;;-145.79;80.80;75751.84;5295896;28;19916;-69
2023/10/13 16:25:24;;;;;;;;;;;;;;;-145.79;80.91;75753.97;5296914;28;19916;-69
2023/10/13 16:27:55;;;;;;;;;;;;;;;-145.79;80.74;75758.19;5289761;28;20336;-69
2023/10/13 16:30:28;;;;;;;;;;;;;;;-145.79;80.81;75762.44;5293747;28;19952;-69
2023/10/13 16:32:59;;;;;;;;;;;;;;;-145.79;80.68;75762.44;5295973;28;20001;-69
2023/10/13 16:35:33;;;;;;;;;;;;;;;-145.79;80.47;75758.19;5291907;28;19916;-68
2023/10/13 16:38:06;;;;;;;;;;;;;;;-145.79;80.06;75751.84;5298441;28;19916;-69
2023/10/13 16:40:40;;;;;;;;;;;;;;;-145.79;80.47;75753.97;5293805;28;19920;-69
2023/10/13 16:43:12;;;;;;;;;;;;;;;-145.79;80.46;75751.84;5294514;28;19938;-69
2023/10/13 16:45:44;;;;;;;;;;;;;;;-145.79;80.03;75747.59;5300406;28;19924;-69
2023/10/13 16:48:16;;;;;;;;;;;;;;;-145.79;79.90;75753.97;5292711;28;19968;-69
2023/10/13 16:50:47;;;;;;;;;;;;;;;-145.79;79.92;75758.19;5301672;28;19951;-67
2023/10/13 16:53:20;;;;;;;;;;;;;;;-145.79;80.14;75775.16;5296579;28;20081;-68
2023/10/13 16:55:51;;;;;;;;;;;;;;;-145.79;80.04;75783.63;5296525;28;19915;-67
